Time;durP1;ratioP1;P1;durP2;ratioP2;P2;SDS_P1;SDS_P2;PMS_P1;PMS_P2;Temp;Humidity;BMP_temperature;BMP_pressure;BME280_temperature;BME280_humidity;BME280_pressure;Samples;Min_cycle;Max_cycle;Signal;HPM_P1;HPM_P2
2023/09/21 00:00:49;;;;;;;6.88;6.38;;;17.20;82.70;;;;;;5114275;28;20247;-88
2023/09/21 00:03:15;;;;;;;6.43;5.93;;;17.20;83.00;;;;;;5114074;28;20178;-89
2023/09/21 00:05:46;;;;;;;7.53;5.93;;;17.10;82.80;;;;;;5114381;28;20173;-89
2023/09/21 00:08:11;;;;;;;6.53;5.93;;;17.10;82.70;;;;;;5114177;28;20154;-89
2023/09/21 00:10:37;;;;;;;6.93;6.25;;;17.10;83.10;;;;;;5114105;28;20551;-89
2023/09/21 00:13:04;;;;;;;6.47;5.95;;;17.10;83.10;;;;;;5114282;27;20549;-89
2023/09/21 00:15:30;;;;;;;6.70;6.10;;;17.10;82.80;;;;;;5114020;28;20327;-89
2023/09/21 00:17:57;;;;;;;8.25;5.93;;;17.00;82.90;;;;;;5113818;28;20272;-89
2023/09/21 00:20:29;;;;;;;6.82;5.90;;;17.10;82.90;;;;;;5115271;28;20177;-89
2023/09/21 00:22:59;;;;;;;5.72;5.18;;;16.90;83.20;;;;;;5115160;28;20241;-89
2023/09/21 00:25:25;;;;;;;5.70;5.20;;;17.00;83.30;;;;;;5114868;28;20190;-89
2023/09/21 00:27:51;;;;;;;7.35;5.35;;;16.90;83.50;;;;;;5113667;28;20166;-89
2023/09/21 00:30:17;;;;;;;5.85;5.28;;;16.80;83.70;;;;;;5113759;28;20181;-89
2023/09/21 00:32:42;;;;;;;5.63;5.10;;;16.80;83.80;;;;;;5113763;28;20170;-89
2023/09/21 00:35:09;;;;;;;7.38;5.60;;;16.90;83.80;;;;;;5113596;28;20194;-89
2023/09/21 00:37:40;;;;;;;6.00;5.40;;;16.80;83.80;;;;;;5113312;28;20181;-89
2023/09/21 00:40:20;;;;;;;6.38;4.93;;;16.80;84.00;;;;;;5114301;28;20202;-89
2023/09/21 00:42:46;;;;;;;5.93;5.10;;;16.70;84.10;;;;;;5114186;28;20181;-89
2023/09/21 00:45:12;;;;;;;10.77;4.82;;;16.70;84.20;;;;;;5113585;28;20204;-89
2023/09/21 00:47:39;;;;;;;6.18;5.25;;;16.70;84.20;;;;;;5113912;28;20706;-89
2023/09/21 00:50:10;;;;;;;5.97;5.38;;;16.70;84.30;;;;;;5114576;28;20198;-89
2023/09/21 00:52:38;;;;;;;6.63;5.53;;;16.70;84.30;;;;;;5113489;28;20158;-89
2023/09/21 00:55:05;;;;;;;6.88;5.13;;;16.60;84.50;;;;;;5114252;28;20759;-89
2023/09/21 00:57:32;;;;;;;9.25;5.60;;;16.70;84.40;;;;;;5114890;28;20622;-89
2023/09/21 00:59:58;;;;;;;5.57;5.18;;;16.70;84.30;;;;;;5113297;28;20178;-89
2023/09/21 01:02:24;;;;;;;6.00;5.50;;;16.70;84.20;;;;;;5114343;28;20227;-89
2023/09/21 01:04:49;;;;;;;7.10;5.80;;;16.70;84.10;;;;;;5114222;28;20230;-89
2023/09/21 01:07:17;;;;;;;6.13;5.63;;;16.80;84.00;;;;;;5113199;28;20266;-88
2023/09/21 01:09:45;;;;;;;7.13;5.55;;;16.80;83.80;;;;;;5114497;28;20189;-89
2023/09/21 01:12:13;;;;;;;8.05;5.70;;;16.80;83.70;;;;;;5114197;28;20158;-89
2023/09/21 01:14:39;;;;;;;6.75;6.13;;;16.70;83.70;;;;;;5112829;28;20201;-88
2023/09/21 01:17:04;;;;;;;6.43;5.82;;;16.80;83.70;;;;;;5112910;28;20178;-89
2023/09/21 01:19:30;;;;;;;6.72;6.13;;;16.70;83.60;;;;;;5113763;28;20540;-89
2023/09/21 01:21:59;;;;;;;6.93;6.35;;;16.80;83.80;;;;;;5113009;28;20185;-89
2023/09/21 01:24:27;;;;;;;6.53;6.03;;;16.80;83.60;;;;;;5112703;28;20582;-89
2023/09/21 01:26:53;;;;;;;7.35;6.30;;;16.70;83.60;;;;;;5113976;28;20186;-89
2023/09/21 01:29:18;;;;;;;5.93;5.53;;;16.70;83.80;;;;;;5112835;28;20219;-89
2023/09/21 01:31:45;;;;;;;9.23;5.47;;;16.70;83.90;;;;;;5112919;28;20182;-88
2023/09/21 01:34:11;;;;;;;6.65;5.53;;;16.60;84.00;;;;;;5112686;28;20276;-89
2023/09/21 01:36:37;;;;;;;8.93;5.32;;;16.70;84.10;;;;;;5112735;28;20215;-89
2023/09/21 01:39:08;;;;;;;8.18;5.57;;;16.60;84.20;;;;;;5113991;28;20661;-89
2023/09/21 01:41:35;;;;;;;6.93;5.70;;;16.60;84.30;;;;;;5114228;28;20154;-89
2023/09/21 01:44:00;;;;;;;7.38;5.40;;;16.60;84.30;;;;;;5112611;28;20217;-89
2023/09/21 01:46:26;;;;;;;5.68;5.18;;;16.50;84.40;;;;;;5113882;28;20204;-89
2023/09/21 01:48:53;;;;;;;5.63;5.22;;;16.50;84.50;;;;;;5112639;28;20178;-90
2023/09/21 01:51:19;;;;;;;6.45;5.90;;;16.50;84.40;;;;;;5115641;28;20201;-89
2023/09/21 01:53:45;;;;;;;5.50;5.00;;;16.50;84.40;;;;;;5116714;28;20235;-89
2023/09/21 01:56:11;;;;;;;5.75;5.25;;;16.50;84.30;;;;;;5117662;28;20661;-89
2023/09/21 01:58:37;;;;;;;6.43;5.72;;;16.50;84.50;;;;;;5117894;28;20174;-89
2023/09/21 02:01:03;;;;;;;6.53;5.35;;;16.50;84.40;;;;;;5117866;28;20170;-89
2023/09/21 02:03:31;;;;;;;6.15;5.63;;;16.50;84.40;;;;;;5116570;28;20194;-88
2023/09/21 02:05:59;;;;;;;7.53;5.55;;;16.50;84.30;;;;;;5116502;28;20265;-88
2023/09/21 02:08:25;;;;;;;8.55;5.55;;;16.50;84.20;;;;;;5116300;28;20181;-89
2023/09/21 02:10:52;;;;;;;6.30;5.80;;;16.50;84.00;;;;;;5117640;28;20197;-88
2023/09/21 02:13:18;;;;;;;9.32;6.50;;;16.60;84.10;;;;;;5117469;28;20177;-89
2023/09/21 02:15:51;;;;;;;5.97;5.28;;;16.60;83.80;;;;;;5116522;28;20188;-89
2023/09/21 02:18:16;;;;;;;6.18;5.57;;;16.50;83.80;;;;;;5116332;28;20606;-89
2023/09/21 02:20:44;;;;;;;6.88;5.88;;;16.60;83.90;;;;;;5116885;28;20198;-90
2023/09/21 02:23:10;;;;;;;5.88;5.05;;;16.60;83.70;;;;;;5116157;28;20178;-89
2023/09/21 02:25:38;;;;;;;5.07;4.65;;;16.50;83.80;;;;;;5116239;28;20201;-89
2023/09/21 02:28:09;;;;;;;7.57;5.38;;;16.50;84.00;;;;;;5116287;28;20219;-90
2023/09/21 02:30:39;;;;;;;5.60;5.10;;;16.40;84.10;;;;;;5117868;28;20181;-90
2023/09/21 02:33:05;;;;;;;5.80;5.30;;;16.40;84.00;;;;;;5116250;28;20258;-90
2023/09/21 02:35:33;;;;;;;5.50;5.00;;;16.40;84.00;;;;;;5116087;28;20205;-89
2023/09/21 02:37:59;;;;;;;7.82;4.85;;;16.50;83.80;;;;;;5117158;28;20170;-90
2023/09/21 02:40:25;;;;;;;5.72;4.68;;;16.50;83.60;;;;;;5117559;28;20170;-89
2023/09/21 02:42:56;;;;;;;6.10;5.55;;;16.50;83.60;;;;;;5115714;28;20201;-89
2023/09/21 02:45:29;;;;;;;7.05;5.40;;;16.60;83.60;;;;;;5116870;28;20190;-89
2023/09/21 02:48:02;;;;;;;7.38;5.55;;;16.60;83.40;;;;;;5117075;27;20162;-89
2023/09/21 02:50:30;;;;;;;7.18;5.05;;;16.60;83.20;;;;;;5115919;28;20198;-89
2023/09/21 02:52:58;;;;;;;6.13;5.57;;;16.60;83.20;;;;;;5115534;28;20174;-89
2023/09/21 02:55:26;;;;;;;6.07;5.57;;;16.50;83.20;;;;;;5116604;28;20629;-89
2023/09/21 02:58:21;;;;;;;5.60;5.05;;;16.60;83.30;;;;;;5117116;28;20540;-89
2023/09/21 03:00:49;;;;;;;6.45;5.85;;;16.60;83.10;;;;;;5116162;28;20167;-89
2023/09/21 03:03:16;;;;;;;6.30;5.80;;;16.60;83.20;;;;;;5115136;28;20291;-89
2023/09/21 03:05:47;;;;;;;10.98;6.35;;;16.40;83.30;;;;;;5116578;28;20166;-89
2023/09/21 03:08:14;;;;;;;6.32;5.75;;;16.40;83.50;;;;;;5115393;28;20154;-89
2023/09/21 03:10:45;;;;;;;7.40;5.43;;;16.40;83.40;;;;;;5115275;28;20208;-89
2023/09/21 03:13:17;;;;;;;7.85;6.10;;;16.40;83.60;;;;;;5115263;28;20260;-90
2023/09/21 03:15:44;;;;;;;7.03;6.32;;;16.40;83.60;;;;;;5115225;28;20186;-90
2023/09/21 03:18:10;;;;;;;7.38;5.70;;;16.40;83.60;;;;;;5116452;28;20253;-89
2023/09/21 03:20:36;;;;;;;6.60;6.10;;;16.40;83.50;;;;;;5115081;28;20257;-90
2023/09/21 03:23:05;;;;;;;7.50;6.32;;;16.40;83.40;;;;;;5116174;28;20170;-89
2023/09/21 03:25:40;;;;;;;5.85;5.35;;;16.50;83.40;;;;;;5116207;28;20193;-89
2023/09/21 03:28:16;;;;;;;6.53;5.80;;;16.40;83.30;;;;;;5116315;28;20229;-90
2023/09/21 03:30:47;;;;;;;7.50;6.75;;;16.30;83.30;;;;;;5114893;28;20629;-89
2023/09/21 03:33:15;;;;;;;7.88;7.05;;;16.30;83.40;;;;;;5114586;28;20217;-89
2023/09/21 03:35:41;;;;;;;7.70;6.70;;;16.30;83.50;;;;;;5115956;28;20231;-89
2023/09/21 03:38:14;;;;;;;6.40;5.90;;;16.30;83.50;;;;;;5115964;27;20178;-89
2023/09/21 03:40:43;;;;;;;7.32;6.72;;;16.30;83.60;;;;;;5115835;28;20165;-89
2023/09/21 03:43:10;;;;;;;6.50;5.95;;;16.30;83.70;;;;;;5114704;28;20178;-89
2023/09/21 03:45:36;;;;;;;7.97;6.38;;;16.30;83.50;;;;;;5114525;28;20201;-89
2023/09/21 03:48:05;;;;;;;6.57;5.93;;;16.30;83.70;;;;;;5115893;28;20189;-89
2023/09/21 03:50:31;;;;;;;6.40;5.90;;;16.30;83.50;;;;;;5115757;28;20171;-89
2023/09/21 03:52:59;;;;;;;5.70;5.20;;;16.30;83.50;;;;;;5114340;28;20185;-90
2023/09/21 03:55:25;;;;;;;7.85;6.07;;;16.30;83.50;;;;;;5115706;28;20209;-89
2023/09/21 03:57:51;;;;;;;6.68;5.57;;;16.30;83.50;;;;;;5114396;28;20158;-89
2023/09/21 04:00:36;;;;;;;6.10;5.60;;;16.30;83.40;;;;;;5114503;28;20177;-89
2023/09/21 04:03:10;;;;;;;6.35;5.43;;;16.30;83.20;;;;;;5115679;28;20568;-89
2023/09/21 04:05:37;;;;;;;5.43;4.93;;;16.30;83.20;;;;;;5116097;28;20188;-89
2023/09/21 04:08:04;;;;;;;8.73;5.53;;;16.30;83.20;;;;;;5115482;28;20179;-90
2023/09/21 04:10:30;;;;;;;5.97;5.45;;;16.30;83.20;;;;;;5114359;28;20170;-89
2023/09/21 04:12:56;;;;;;;6.35;5.35;;;16.30;83.20;;;;;;5113590;28;20177;-89
2023/09/21 04:15:24;;;;;;;7.30;5.80;;;16.30;83.40;;;;;;5114045;28;20637;-89
2023/09/21 04:17:50;;;;;;;5.72;5.32;;;16.30;83.40;;;;;;5113951;28;20170;-89
2023/09/21 04:20:18;;;;;;;6.03;5.53;;;16.40;83.50;;;;;;5113872;28;20227;-89
2023/09/21 04:22:45;;;;;;;6.15;5.65;;;16.30;83.40;;;;;;5113875;28;20177;-89
2023/09/21 04:25:13;;;;;;;5.72;5.32;;;16.30;83.40;;;;;;5114938;28;20232;-89
2023/09/21 04:27:41;;;;;;;5.93;5.43;;;16.30;83.40;;;;;;5114009;28;20177;-89
2023/09/21 04:30:08;;;;;;;6.30;5.70;;;16.30;83.30;;;;;;5113681;28;20170;-89
2023/09/21 04:32:38;;;;;;;6.22;5.78;;;16.30;83.30;;;;;;5115061;28;20649;-89
2023/09/21 04:35:05;;;;;;;5.57;5.13;;;16.30;83.40;;;;;;5113828;28;20224;-89
2023/09/21 04:37:35;;;;;;;6.43;5.70;;;16.30;83.40;;;;;;5114032;28;20174;-89
2023/09/21 04:40:09;;;;;;;6.55;5.90;;;16.30;83.40;;;;;;5114820;28;20178;-89
2023/09/21 04:42:39;;;;;;;6.22;5.63;;;16.30;83.20;;;;;;5113782;28;20170;-89
2023/09/21 04:45:10;;;;;;;15.30;14.05;;;16.30;83.10;;;;;;5113284;28;20280;-89
2023/09/21 04:47:40;;;;;;;17.85;16.42;;;16.30;82.90;;;;;;5113259;28;20235;-89
2023/09/21 04:50:09;;;;;;;16.85;15.75;;;16.30;82.80;;;;;;5114344;28;20201;-89
2023/09/21 04:52:34;;;;;;;6.75;6.10;;;16.40;82.60;;;;;;5113861;28;20174;-90
2023/09/21 04:55:04;;;;;;;6.75;5.80;;;16.40;82.60;;;;;;5114293;28;20201;-89
2023/09/21 04:57:30;;;;;;;14.43;13.18;;;16.40;82.50;;;;;;5114478;28;20162;-90
2023/09/21 04:59:59;;;;;;;17.00;15.70;;;16.40;82.30;;;;;;5114634;28;20540;-90
2023/09/21 05:02:26;;;;;;;16.77;15.68;;;16.40;82.40;;;;;;5114288;28;20169;-89
2023/09/21 05:04:52;;;;;;;6.57;5.97;;;16.50;82.30;;;;;;5114206;28;20697;-89
2023/09/21 05:07:18;;;;;;;6.82;5.88;;;16.40;82.30;;;;;;5113192;28;20187;-89
2023/09/21 05:09:44;;;;;;;13.43;12.52;;;16.40;82.30;;;;;;5113697;28;20177;-89
2023/09/21 05:12:10;;;;;;;15.15;13.93;;;16.30;82.30;;;;;;5114569;28;20166;-89
2023/09/21 05:14:37;;;;;;;6.10;5.70;;;16.40;82.40;;;;;;5112945;28;20189;-89
2023/09/21 05:17:05;;;;;;;6.55;5.82;;;16.40;82.40;;;;;;5113014;28;20222;-89
2023/09/21 05:19:32;;;;;;;7.70;6.90;;;16.50;82.30;;;;;;5112963;28;20170;-88
2023/09/21 05:21:59;;;;;;;7.20;6.53;;;16.50;82.30;;;;;;5112949;28;20178;-88
2023/09/21 05:24:25;;;;;;;6.97;5.95;;;16.50;82.20;;;;;;5112907;28;20233;-89
2023/09/21 05:26:52;;;;;;;7.03;6.30;;;16.50;82.00;;;;;;5112689;28;20645;-90
2023/09/21 05:29:19;;;;;;;6.85;6.35;;;16.50;81.90;;;;;;5112782;28;20238;-89
2023/09/21 05:31:44;;;;;;;7.32;6.53;;;16.50;81.80;;;;;;5112810;28;20174;-90
2023/09/21 05:34:10;;;;;;;8.00;6.03;;;16.60;81.70;;;;;;5112680;28;20189;-89
2023/09/21 05:36:35;;;;;;;6.60;6.10;;;16.50;81.80;;;;;;5113903;28;20174;-89
2023/09/21 05:39:01;;;;;;;8.82;6.80;;;16.50;81.80;;;;;;5113930;28;20591;-90
2023/09/21 05:41:27;;;;;;;7.78;6.60;;;16.50;81.90;;;;;;5112788;28;20178;-91
2023/09/21 05:43:53;;;;;;;7.10;6.60;;;16.50;81.90;;;;;;5112537;28;20198;-91
2023/09/21 05:46:18;;;;;;;9.65;8.40;;;16.50;81.90;;;;;;5113816;28;20235;-89
2023/09/21 05:48:45;;;;;;;9.18;8.10;;;16.60;82.00;;;;;;5112675;28;20177;-91
2023/09/21 05:51:11;;;;;;;7.13;6.53;;;16.70;81.90;;;;;;5112548;28;20166;-90
2023/09/21 05:53:37;;;;;;;6.90;6.22;;;16.70;81.80;;;;;;5112645;28;20280;-88
2023/09/21 05:56:04;;;;;;;6.53;5.93;;;16.80;81.40;;;;;;5112417;28;20182;-88
2023/09/21 05:58:30;;;;;;;7.22;6.55;;;16.80;81.40;;;;;;5112739;28;20223;-91
2023/09/21 06:00:57;;;;;;;7.75;6.88;;;17.00;81.20;;;;;;5112548;28;20170;-89
2023/09/21 06:03:26;;;;;;;7.15;6.60;;;17.00;80.90;;;;;;5113722;28;20167;-91
2023/09/21 06:05:52;;;;;;;11.27;6.88;;;17.00;80.90;;;;;;5112480;28;20170;-90
2023/09/21 06:08:19;;;;;;;8.07;7.28;;;17.10;81.00;;;;;;5113848;28;20174;-90
2023/09/21 06:10:45;;;;;;;8.20;7.55;;;17.20;80.40;;;;;;5112148;28;20170;-90
2023/09/21 06:13:10;;;;;;;8.15;7.38;;;17.20;80.50;;;;;;5113336;28;20173;-90
2023/09/21 06:15:37;;;;;;;8.75;6.93;;;17.20;80.50;;;;;;5112209;28;20550;-90
2023/09/21 06:18:04;;;;;;;12.27;7.20;;;17.30;80.40;;;;;;5112287;28;20170;-89
2023/09/21 06:20:30;;;;;;;7.55;7.03;;;17.30;80.50;;;;;;5113408;28;20550;-90
2023/09/21 06:22:56;;;;;;;7.90;7.20;;;17.30;80.10;;;;;;5113309;28;20186;-91
2023/09/21 06:25:21;;;;;;;8.45;7.75;;;17.30;80.10;;;;;;5113228;28;20194;-90
2023/09/21 06:27:47;;;;;;;7.95;7.35;;;17.30;79.80;;;;;;5112032;28;20182;-90
2023/09/21 06:30:15;;;;;;;8.45;7.85;;;17.30;79.60;;;;;;5113316;28;20182;-89
2023/09/21 06:32:40;;;;;;;10.77;8.05;;;17.30;79.70;;;;;;5112270;28;20174;-90
2023/09/21 06:35:08;;;;;;;13.63;8.52;;;17.30;79.60;;;;;;5112245;28;20198;-89
2023/09/21 06:37:34;;;;;;;9.13;8.15;;;17.40;79.40;;;;;;5115046;28;20213;-90
2023/09/21 06:40:00;;;;;;;9.05;8.27;;;17.50;78.60;;;;;;5117331;28;20166;-90
2023/09/21 06:42:26;;;;;;;9.02;8.23;;;17.50;78.60;;;;;;5115986;28;20174;-90
2023/09/21 06:44:54;;;;;;;8.93;8.13;;;17.50;78.90;;;;;;5115491;28;20769;-90
2023/09/21 06:47:22;;;;;;;9.27;8.50;;;17.70;78.60;;;;;;5115816;28;20180;-89
2023/09/21 06:49:49;;;;;;;8.95;8.13;;;17.70;78.70;;;;;;5116763;28;20174;-89
2023/09/21 06:52:17;;;;;;;8.35;7.75;;;17.70;78.30;;;;;;5116673;28;20169;-89
2023/09/21 06:54:42;;;;;;;8.82;8.10;;;17.80;77.90;;;;;;5115349;28;20221;-89
2023/09/21 06:57:08;;;;;;;8.10;7.32;;;17.90;77.40;;;;;;5115901;28;20190;-89
2023/09/21 06:59:38;;;;;;;7.60;7.05;;;17.90;77.50;;;;;;5115372;28;20178;-90
2023/09/21 07:02:04;;;;;;;8.27;7.72;;;17.90;77.90;;;;;;5116404;28;20166;-90
2023/09/21 07:04:33;;;;;;;10.55;8.82;;;18.00;77.00;;;;;;5115299;28;20206;-90
2023/09/21 07:07:04;;;;;;;9.02;8.20;;;18.20;76.70;;;;;;5115132;28;20170;-90
2023/09/21 07:09:34;;;;;;;9.23;8.43;;;18.10;77.20;;;;;;5115066;28;20162;-90
2023/09/21 07:12:01;;;;;;;10.27;9.35;;;18.10;77.40;;;;;;5116253;28;20565;-89
2023/09/21 07:14:28;;;;;;;10.43;9.40;;;18.20;76.70;;;;;;5115087;27;20206;-89
2023/09/21 07:16:55;;;;;;;9.00;8.30;;;18.30;76.50;;;;;;5115074;28;20264;-89
2023/09/21 07:19:20;;;;;;;10.07;9.35;;;18.30;76.50;;;;;;5116058;28;20174;-89
2023/09/21 07:21:46;;;;;;;9.88;8.75;;;18.40;76.30;;;;;;5114816;28;20545;-89
2023/09/21 07:24:11;;;;;;;9.88;9.20;;;18.50;75.80;;;;;;5115105;28;20198;-90
2023/09/21 07:26:37;;;;;;;9.57;8.88;;;18.60;74.90;;;;;;5114744;28;20201;-89
2023/09/21 07:29:05;;;;;;;11.10;10.07;;;18.70;75.10;;;;;;5114776;28;20728;-90
2023/09/21 07:31:33;;;;;;;13.05;11.95;;;18.70;75.10;;;;;;5114697;28;20178;-91
2023/09/21 07:33:59;;;;;;;13.23;12.23;;;18.70;74.60;;;;;;5114586;28;20703;-90
2023/09/21 07:36:25;;;;;;;11.50;10.73;;;18.80;74.30;;;;;;5114636;28;20649;-90
2023/09/21 07:38:55;;;;;;;11.70;10.75;;;18.80;74.70;;;;;;5115753;28;20219;-90
2023/09/21 07:41:20;;;;;;;12.30;11.30;;;19.00;75.30;;;;;;5115467;28;20193;-90
2023/09/21 07:43:46;;;;;;;12.38;11.38;;;19.10;74.20;;;;;;5115451;28;20673;-89
2023/09/21 07:46:12;;;;;;;13.55;12.48;;;19.20;74.00;;;;;;5114428;28;20173;-89
2023/09/21 07:48:37;;;;;;;13.73;12.82;;;19.20;73.90;;;;;;5114653;28;20642;-89
2023/09/21 07:51:07;;;;;;;13.80;12.77;;;19.30;73.70;;;;;;5114329;28;20692;-89
2023/09/21 07:53:33;;;;;;;14.05;12.95;;;19.40;73.40;;;;;;5114356;28;20190;-88
2023/09/21 07:56:05;;;;;;;14.27;13.20;;;19.50;72.60;;;;;;5114371;28;20186;-87
2023/09/21 07:58:31;;;;;;;13.90;12.82;;;19.60;72.50;;;;;;5114192;28;20170;-89
2023/09/21 08:00:57;;;;;;;14.27;13.02;;;19.70;72.50;;;;;;5114245;28;20594;-90
2023/09/21 08:03:26;;;;;;;14.43;13.43;;;19.70;72.30;;;;;;5115409;28;20540;-89
2023/09/21 08:05:55;;;;;;;15.00;13.90;;;19.80;72.20;;;;;;5114622;28;20173;-88
2023/09/21 08:08:21;;;;;;;14.18;13.25;;;19.90;71.70;;;;;;5114847;28;20196;-89
2023/09/21 08:10:50;;;;;;;13.77;12.88;;;20.00;71.80;;;;;;5115721;28;20657;-88
2023/09/21 08:13:16;;;;;;;14.27;12.98;;;20.20;72.30;;;;;;5114738;28;20177;-87
2023/09/21 08:15:42;;;;;;;13.68;12.77;;;20.30;70.50;;;;;;5114742;28;20174;-88
2023/09/21 08:18:10;;;;;;;14.98;13.95;;;20.30;70.30;;;;;;5114497;28;20182;-88
2023/09/21 08:20:36;;;;;;;15.20;13.88;;;20.30;69.70;;;;;;5115924;28;20167;-87
2023/09/21 08:23:02;;;;;;;14.75;13.65;;;20.50;70.20;;;;;;5115740;28;20667;-88
2023/09/21 08:25:28;;;;;;;14.20;13.30;;;20.70;69.80;;;;;;5115719;28;20206;-87
2023/09/21 08:27:53;;;;;;;14.73;13.45;;;20.80;68.50;;;;;;5114096;28;20596;-87
2023/09/21 08:30:19;;;;;;;15.30;14.20;;;20.80;69.00;;;;;;5114270;28;20189;-88
2023/09/21 08:32:44;;;;;;;15.00;13.85;;;20.70;69.10;;;;;;5115745;28;20196;-88
2023/09/21 08:35:11;;;;;;;24.60;22.75;;;20.70;69.30;;;;;;5114078;28;20198;-88
2023/09/21 08:37:36;;;;;;;24.42;22.83;;;20.80;68.90;;;;;;5113620;28;20177;-87
2023/09/21 08:40:06;;;;;;;22.88;21.48;;;21.10;68.70;;;;;;5113822;28;20174;-87
2023/09/21 08:42:32;;;;;;;15.65;14.45;;;21.20;68.10;;;;;;5114187;28;20170;-88
2023/09/21 08:44:59;;;;;;;16.42;15.23;;;21.20;68.60;;;;;;5114172;28;20630;-88
2023/09/21 08:47:28;;;;;;;20.05;18.45;;;21.10;66.70;;;;;;5116809;28;20178;-88
2023/09/21 08:49:53;;;;;;;21.80;20.40;;;21.00;68.10;;;;;;5113520;28;20610;-89
2023/09/21 08:52:21;;;;;;;22.13;20.55;;;20.90;68.40;;;;;;5113524;28;20198;-88
2023/09/21 08:54:48;;;;;;;15.80;14.80;;;20.90;68.20;;;;;;5114674;28;20189;-88
2023/09/21 08:57:14;;;;;;;15.23;14.23;;;20.90;68.50;;;;;;5113366;28;20170;-88
2023/09/21 08:59:44;;;;;;;15.23;14.23;;;20.80;69.40;;;;;;5114758;28;20660;-90
2023/09/21 09:02:13;;;;;;;14.95;13.90;;;20.80;69.20;;;;;;5114505;28;20611;-89
2023/09/21 09:04:43;;;;;;;15.32;14.23;;;20.90;68.50;;;;;;5113538;28;20205;-89
2023/09/21 09:07:10;;;;;;;17.48;15.70;;;20.90;68.70;;;;;;5113366;28;20721;-88
2023/09/21 09:09:39;;;;;;;17.33;16.13;;;20.90;67.90;;;;;;5115145;28;20162;-89
2023/09/21 09:12:19;;;;;;;16.50;15.40;;;21.00;67.80;;;;;;5114658;28;20535;-88
2023/09/21 09:14:45;;;;;;;16.67;15.48;;;21.00;68.20;;;;;;5114659;28;20699;-89
2023/09/21 09:17:14;;;;;;;17.63;16.42;;;21.10;68.20;;;;;;5114793;28;20174;-88
2023/09/21 09:19:40;;;;;;;18.20;16.67;;;21.30;66.60;;;;;;5114595;28;20592;-88
2023/09/21 09:22:06;;;;;;;17.45;16.25;;;21.70;66.10;;;;;;5113452;28;20170;-88
2023/09/21 09:24:33;;;;;;;17.85;16.48;;;21.90;66.60;;;;;;5112916;28;20236;-89
2023/09/21 09:26:59;;;;;;;20.65;18.90;;;22.10;66.50;;;;;;5114121;28;20166;-89
2023/09/21 09:29:26;;;;;;;19.00;17.60;;;22.40;65.60;;;;;;5114092;28;20162;-89
2023/09/21 09:31:51;;;;;;;19.17;17.77;;;22.60;64.10;;;;;;5112860;28;20189;-88
2023/09/21 09:34:18;;;;;;;19.52;17.83;;;22.70;64.30;;;;;;5114299;28;20676;-88
2023/09/21 09:36:51;;;;;;;19.02;17.52;;;22.80;62.80;;;;;;5113096;28;20185;-88
2023/09/21 09:39:23;;;;;;;18.42;16.98;;;22.80;62.20;;;;;;5114387;28;20150;-88
2023/09/21 09:41:50;;;;;;;17.23;16.13;;;22.90;61.30;;;;;;5114954;28;20621;-88
2023/09/21 09:44:21;;;;;;;17.83;16.63;;;23.00;59.90;;;;;;5114277;28;20619;-88
2023/09/21 09:46:48;;;;;;;18.38;16.63;;;23.10;60.00;;;;;;5114257;28;20146;-88
2023/09/21 09:49:15;;;;;;;18.20;16.90;;;23.20;60.50;;;;;;5114202;28;20173;-89
2023/09/21 09:51:44;;;;;;;18.27;16.33;;;23.30;59.80;;;;;;5114601;28;20663;-89
2023/09/21 09:54:12;;;;;;;17.70;16.50;;;23.40;61.60;;;;;;5112543;28;20557;-89
2023/09/21 09:56:41;;;;;;;18.73;17.13;;;23.40;59.60;;;;;;5112710;28;20205;-89
2023/09/21 09:59:09;;;;;;;18.58;17.10;;;23.50;59.50;;;;;;5113822;28;20173;-89
2023/09/21 10:01:37;;;;;;;17.73;16.50;;;23.60;60.30;;;;;;5112443;28;20178;-89
2023/09/21 10:04:07;;;;;;;18.90;17.25;;;23.70;59.40;;;;;;5112871;28;20224;-89
2023/09/21 10:06:37;;;;;;;17.58;16.42;;;23.80;59.80;;;;;;5112475;28;20162;-89
2023/09/21 10:09:13;;;;;;;18.13;16.98;;;23.80;58.80;;;;;;5112489;28;20166;-89
2023/09/21 10:11:46;;;;;;;18.00;16.63;;;24.00;59.10;;;;;;5115692;28;20182;-89
2023/09/21 10:14:18;;;;;;;21.60;20.20;;;24.20;58.80;;;;;;5116493;28;20204;-89
2023/09/21 10:16:54;;;;;;;21.08;19.52;;;24.20;59.40;;;;;;5117623;28;20162;-89
2023/09/21 10:19:29;;;;;;;20.73;19.17;;;23.90;57.50;;;;;;5116066;28;20234;-89
2023/09/21 10:22:03;;;;;;;21.38;19.90;;;23.70;58.40;;;;;;5116147;28;20176;-89
2023/09/21 10:24:30;;;;;;;21.40;19.90;;;23.80;58.40;;;;;;5115937;28;20208;-89
2023/09/21 10:27:03;;;;;;;27.55;25.58;;;23.90;58.90;;;;;;5115949;28;20170;-88
2023/09/21 10:29:36;;;;;;;27.52;25.63;;;24.00;57.60;;;;;;5116142;28;20544;-89
2023/09/21 10:32:08;;;;;;;27.75;25.63;;;24.20;59.50;;;;;;5115931;28;20177;-89
2023/09/21 10:34:34;;;;;;;21.80;20.30;;;24.20;58.80;;;;;;5120385;28;20190;-89
2023/09/21 10:37:10;;;;;;;22.27;20.40;;;24.40;58.80;;;;;;5116068;28;20227;-88
2023/09/21 10:39:37;;;;;;;21.23;19.73;;;24.70;56.90;;;;;;5115934;28;20185;-88
2023/09/21 10:42:06;;;;;;;21.42;19.95;;;24.70;57.00;;;;;;5115841;28;20170;-89
2023/09/21 10:45:02;;;;;;;20.92;19.52;;;24.70;55.00;;;;;;5117029;28;20225;-89
2023/09/21 10:47:37;;;;;;;22.40;20.60;;;24.60;57.00;;;;;;5115788;28;20265;-89
2023/09/21 10:50:04;;;;;;;21.80;20.15;;;24.80;55.40;;;;;;5115672;28;20644;-90
2023/09/21 10:52:31;;;;;;;21.38;19.85;;;24.90;54.90;;;;;;5116613;28;20214;-89
2023/09/21 10:54:57;;;;;;;21.35;19.90;;;24.90;56.40;;;;;;5115215;28;20198;-88
2023/09/21 10:57:24;;;;;;;21.75;20.05;;;25.10;56.80;;;;;;5117225;28;20177;-88
2023/09/21 10:59:52;;;;;;;21.83;20.15;;;24.90;56.00;;;;;;5116564;28;20181;-89
2023/09/21 11:02:18;;;;;;;21.25;19.85;;;25.00;57.20;;;;;;5115481;28;20358;-88
2023/09/21 11:04:44;;;;;;;21.75;20.15;;;25.20;57.80;;;;;;5115743;28;20281;-88
2023/09/21 11:07:12;;;;;;;21.75;20.08;;;25.10;56.40;;;;;;5115496;28;20198;-88
2023/09/21 11:09:40;;;;;;;20.65;19.25;;;24.90;56.30;;;;;;5115416;28;20194;-89
2023/09/21 11:12:09;;;;;;;21.58;19.90;;;24.80;55.90;;;;;;5116532;28;20182;-88
2023/09/21 11:14:34;;;;;;;21.83;20.33;;;24.70;56.50;;;;;;5115087;28;20194;-88
2023/09/21 11:17:01;;;;;;;21.45;20.05;;;24.70;57.30;;;;;;5115172;28;20170;-90
2023/09/21 11:19:26;;;;;;;22.02;20.42;;;24.70;57.20;;;;;;5116320;28;20181;-89
2023/09/21 11:21:52;;;;;;;21.85;20.35;;;24.80;57.10;;;;;;5114854;28;20170;-89
2023/09/21 11:24:18;;;;;;;22.15;20.55;;;25.10;56.40;;;;;;5115088;28;20202;-88
2023/09/21 11:26:54;;;;;;;21.95;20.50;;;25.00;56.50;;;;;;5115082;28;20181;-89
2023/09/21 11:29:20;;;;;;;22.52;21.02;;;24.90;57.40;;;;;;5114955;28;20579;-90
2023/09/21 11:31:49;;;;;;;21.75;20.15;;;25.10;58.10;;;;;;5114784;28;20173;-89
2023/09/21 11:34:16;;;;;;;21.30;19.67;;;25.40;57.40;;;;;;5115390;28;20573;-89
2023/09/21 11:36:42;;;;;;;21.25;19.65;;;25.60;58.10;;;;;;5115020;28;20177;-89
2023/09/21 11:39:11;;;;;;;21.40;19.30;;;25.70;56.30;;;;;;5116006;28;20177;-88
2023/09/21 11:41:39;;;;;;;21.35;19.65;;;25.70;56.10;;;;;;5114722;28;20786;-89
2023/09/21 11:44:06;;;;;;;23.20;21.30;;;25.60;56.90;;;;;;5115162;28;20209;-89
2023/09/21 11:46:32;;;;;;;22.30;20.70;;;25.80;56.60;;;;;;5114836;28;20260;-89
2023/09/21 11:48:58;;;;;;;22.25;20.75;;;25.90;56.20;;;;;;5115948;27;20255;-88
2023/09/21 11:51:28;;;;;;;22.08;20.50;;;26.00;54.20;;;;;;5115794;28;20171;-89
2023/09/21 11:53:58;;;;;;;22.35;20.55;;;26.20;56.00;;;;;;5114725;28;20193;-88
2023/09/21 11:56:24;;;;;;;22.30;20.63;;;26.10;55.30;;;;;;5115524;28;20235;-89
2023/09/21 11:58:49;;;;;;;23.27;21.58;;;25.70;54.90;;;;;;5114133;28;20698;-90
2023/09/21 12:01:19;;;;;;;24.00;22.20;;;25.40;56.70;;;;;;5115839;28;20174;-90
2023/09/21 12:03:45;;;;;;;22.98;21.17;;;25.20;57.30;;;;;;5114688;28;20676;-89
2023/09/21 12:06:12;;;;;;;22.42;20.90;;;25.10;56.30;;;;;;5115708;28;20193;-89
2023/09/21 12:08:38;;;;;;;22.55;20.75;;;25.20;57.50;;;;;;5114454;28;20645;-90
2023/09/21 12:11:04;;;;;;;22.40;20.58;;;25.10;58.30;;;;;;5114185;28;20184;-89
2023/09/21 12:13:30;;;;;;;22.60;21.10;;;25.20;57.40;;;;;;5115256;28;20186;-89
2023/09/21 12:15:55;;;;;;;22.27;20.63;;;25.30;57.70;;;;;;5115163;28;20649;-90
2023/09/21 12:18:22;;;;;;;22.98;21.48;;;25.20;56.80;;;;;;5115185;28;20169;-89
2023/09/21 12:20:56;;;;;;;23.42;21.65;;;24.80;57.70;;;;;;5115130;28;20749;-89
2023/09/21 12:23:22;;;;;;;21.20;19.70;;;24.90;58.40;;;;;;5113891;28;20192;-89
2023/09/21 12:25:48;;;;;;;22.15;20.38;;;24.90;58.00;;;;;;5113717;28;20688;-89
2023/09/21 12:28:14;;;;;;;21.08;19.50;;;25.10;58.60;;;;;;5113970;28;20178;-88
2023/09/21 12:30:43;;;;;;;20.85;19.48;;;25.10;56.80;;;;;;5114883;27;20166;-89
2023/09/21 12:33:11;;;;;;;21.05;19.48;;;25.00;58.30;;;;;;5113750;28;20676;-90
2023/09/21 12:35:36;;;;;;;22.23;20.58;;;24.90;58.60;;;;;;5114420;28;20174;-89
2023/09/21 12:38:02;;;;;;;22.77;20.92;;;24.90;59.30;;;;;;5114688;28;20222;-91
2023/09/21 12:40:28;;;;;;;27.75;25.17;;;24.90;58.70;;;;;;5113389;28;20193;-90